Time;durP1;ratioP1;P1;durP2;ratioP2;P2;SDS_P1;SDS_P2;PMS_P1;PMS_P2;Temp;Humidity;BMP_temperature;BMP_pressure;BME280_temperature;BME280_humidity;BME280_pressure;Samples;Min_cycle;Max_cycle;Signal;HPM_P1;HPM_P2
2023/11/06 00:00:53;;;;;;;1.35;0.77;;;;;;;5.43;75.39;91537.22;2048133;70;20161;-74
2023/11/06 00:03:19;;;;;;;0.77;0.68;;;;;;;5.56;75.46;91545.00;2051425;70;20154;-74
2023/11/06 00:05:45;;;;;;;4.60;0.80;;;;;;;5.70;74.82;91556.28;2051513;70;20205;-77
2023/11/06 00:08:14;;;;;;;2.85;0.82;;;;;;;5.50;75.26;91556.53;2051157;70;20182;-75
2023/11/06 00:10:42;;;;;;;1.23;0.80;;;;;;;5.60;74.88;91564.78;2050907;70;20141;-76
2023/11/06 00:13:07;;;;;;;1.70;0.90;;;;;;;5.64;75.28;91578.28;2051279;70;20156;-77
2023/11/06 00:15:33;;;;;;;2.05;0.77;;;;;;;5.13;75.93;91591.88;2051447;70;20139;-79
2023/11/06 00:17:59;;;;;;;1.55;1.27;;;;;;;5.29;76.92;91576.88;2050911;70;20130;-75
2023/11/06 00:20:25;;;;;;;2.05;0.80;;;;;;;5.53;75.89;91579.69;2051425;70;20233;-75
2023/11/06 00:22:54;;;;;;;1.67;0.90;;;;;;;5.42;76.14;91567.19;2051393;70;20189;-75
2023/11/06 00:25:20;;;;;;;1.08;0.82;;;;;;;5.54;75.30;91572.78;2048048;70;20232;-75
2023/11/06 00:27:52;;;;;;;1.27;0.63;;;;;;;5.50;75.66;91566.97;2051389;70;20225;-76
2023/11/06 00:30:21;;;;;;;2.25;0.60;;;;;;;5.52;74.98;91555.91;2050900;70;20162;-74
2023/11/06 00:32:57;;;;;;;1.67;0.88;;;;;;;5.64;74.39;91567.81;2051435;70;20192;-75
2023/11/06 00:35:23;;;;;;;2.15;0.60;;;;;;;5.40;75.40;91560.75;2051011;70;20541;-74
2023/11/06 00:37:49;;;;;;;0.95;0.52;;;;;;;5.67;75.19;91588.94;2050733;70;20294;-74
2023/11/06 00:40:14;;;;;;;1.88;0.40;;;;;;;5.55;75.26;91580.56;2050655;70;20604;-74
2023/11/06 00:42:40;;;;;;;1.10;0.70;;;;;;;5.48;74.97;91591.94;2051683;70;20262;-74
2023/11/06 00:45:08;;;;;;;1.63;0.73;;;;;;;5.43;74.29;91588.19;2048503;70;20227;-75
2023/11/06 00:47:33;;;;;;;2.13;0.70;;;;;;;5.37;75.20;91595.47;2051123;70;20213;-75
2023/11/06 00:49:59;;;;;;;2.05;0.60;;;;;;;5.45;74.54;91593.91;2051867;69;20233;-75
2023/11/06 00:52:25;;;;;;;1.40;0.70;;;;;;;5.47;74.87;91594.03;2051161;70;20178;-74
2023/11/06 00:54:50;;;;;;;1.20;0.50;;;;;;;5.37;75.12;91590.63;2050915;70;20179;-76
2023/11/06 00:57:17;;;;;;;2.63;1.02;;;;;;;5.04;76.21;91605.34;2051318;70;20515;-76
2023/11/06 00:59:43;;;;;;;1.35;0.90;;;;;;;5.18;75.65;91604.75;2051893;69;20146;-78
2023/11/06 01:02:08;;;;;;;1.02;0.90;;;;;;;5.22;75.03;91597.38;2051938;69;20170;-75
2023/11/06 01:04:34;;;;;;;1.65;1.10;;;;;;;5.30;74.80;91603.44;2051935;69;20162;-74
2023/11/06 01:07:00;;;;;;;1.33;0.60;;;;;;;5.22;74.81;91605.75;2051997;69;20240;-74
2023/11/06 01:09:26;;;;;;;1.35;0.70;;;;;;;5.18;75.31;91608.28;2051675;69;20579;-74
2023/11/06 01:11:52;;;;;;;1.70;0.70;;;;;;;5.01;75.37;91619.75;2051444;70;20208;-74
2023/11/06 01:14:17;;;;;;;1.77;0.80;;;;;;;5.08;75.89;91622.31;2051261;70;20151;-75
2023/11/06 01:16:43;;;;;;;3.05;0.63;;;;;;;5.16;75.00;91627.69;2051713;69;20269;-74
2023/11/06 01:19:09;;;;;;;1.17;0.80;;;;;;;4.57;76.95;91632.28;2051133;70;20158;-74
2023/11/06 01:21:34;;;;;;;1.02;0.70;;;;;;;4.95;76.04;91630.50;2051377;70;20171;-74
2023/11/06 01:24:00;;;;;;;4.88;0.80;;;;;;;5.00;75.98;91637.81;2051511;69;20209;-78
2023/11/06 01:26:26;;;;;;;1.75;0.70;;;;;;;4.82;75.45;91638.13;2051728;70;20503;-77
2023/11/06 01:28:52;;;;;;;2.60;1.00;;;;;;;4.88;75.45;91645.41;2051190;70;20204;-75
2023/11/06 01:31:18;;;;;;;1.85;1.00;;;;;;;4.58;76.11;91644.88;2051185;70;20161;-74
2023/11/06 01:33:43;;;;;;;1.95;0.80;;;;;;;4.78;76.00;91643.41;2051811;69;20332;-74
2023/11/06 01:36:10;;;;;;;3.58;0.70;;;;;;;4.79;75.58;91642.09;2051182;70;20157;-75
2023/11/06 01:38:37;;;;;;;0.73;0.68;;;;;;;4.77;75.32;91646.81;2050607;69;20158;-74
2023/11/06 01:41:04;;;;;;;3.70;0.90;;;;;;;4.30;77.67;91660.47;2050893;70;20170;-76
2023/11/06 01:43:31;;;;;;;0.90;0.70;;;;;;;4.56;76.78;91648.28;2051279;70;20198;-73
2023/11/06 01:45:57;;;;;;;1.58;0.80;;;;;;;4.57;76.19;91635.06;2051282;70;20173;-74
2023/11/06 01:48:27;;;;;;;1.42;0.93;;;;;;;4.12;78.39;91651.63;2051776;70;20595;-73
2023/11/06 01:50:53;;;;;;;1.02;0.68;;;;;;;4.54;77.56;91650.94;2051150;70;20669;-75
2023/11/06 01:53:19;;;;;;;2.25;0.57;;;;;;;4.67;76.57;91660.81;2050904;69;20138;-74
2023/11/06 01:55:46;;;;;;;1.10;0.80;;;;;;;4.40;77.22;91671.56;2051482;69;20526;-77
2023/11/06 01:58:17;;;;;;;0.75;0.70;;;;;;;4.48;76.93;91661.66;2051619;69;20154;-80
2023/11/06 02:00:45;;;;;;;3.80;0.70;;;;;;;4.32;76.65;91674.53;2051045;70;20153;-80
2023/11/06 02:03:13;;;;;;;0.95;0.60;;;;;;;4.49;76.47;91665.94;2051049;70;20183;-77
2023/11/06 02:05:46;;;;;;;1.00;0.82;;;;;;;4.41;76.91;91679.34;2051686;69;20154;-76
2023/11/06 02:08:12;;;;;;;2.78;0.80;;;;;;;4.44;76.01;91678.13;2051510;69;20177;-75
2023/11/06 02:10:37;;;;;;;0.85;0.80;;;;;;;4.45;76.20;91687.97;2047686;70;20204;-75
2023/11/06 02:13:03;;;;;;;1.70;0.80;;;;;;;4.40;76.99;91685.47;2051433;69;20170;-76
2023/11/06 02:15:29;;;;;;;1.92;0.55;;;;;;;4.48;76.81;91691.59;2050917;69;20212;-77
2023/11/06 02:17:58;;;;;;;5.10;1.33;;;;;;;4.49;76.06;91690.28;2051102;70;20220;-75
2023/11/06 02:20:23;;;;;;;1.08;0.68;;;;;;;3.99;77.13;91699.50;2050767;70;20138;-74
2023/11/06 02:22:52;;;;;;;4.53;0.80;;;;;;;4.28;76.62;91707.72;2050768;70;20153;-76
2023/11/06 02:25:18;;;;;;;1.40;0.77;;;;;;;4.03;76.78;91705.31;2051429;69;20216;-73
2023/11/06 02:27:44;;;;;;;1.48;0.80;;;;;;;4.26;76.89;91704.78;2050856;70;20154;-74
2023/11/06 02:30:10;;;;;;;2.55;0.77;;;;;;;4.38;76.30;91718.81;2051401;69;20166;-75
2023/11/06 02:32:35;;;;;;;2.33;0.73;;;;;;;4.34;76.31;91716.47;2051529;69;20150;-76
2023/11/06 02:35:01;;;;;;;3.85;0.60;;;;;;;4.30;76.22;91728.06;2053971;69;20178;-80
2023/11/06 02:37:27;;;;;;;2.60;0.70;;;;;;;3.96;78.15;91737.59;2051130;69;20240;-76
2023/11/06 02:39:53;;;;;;;2.08;0.70;;;;;;;4.15;77.10;91736.06;2050749;70;20661;-74
2023/11/06 02:42:20;;;;;;;1.98;0.60;;;;;;;4.27;76.97;91739.69;2051436;69;20147;-76
2023/11/06 02:44:47;;;;;;;1.00;0.55;;;;;;;4.13;76.76;91733.88;2051054;70;20146;-74
2023/11/06 02:47:13;;;;;;;0.90;0.65;;;;;;;4.26;76.60;91729.84;2051518;70;20848;-74
2023/11/06 02:49:39;;;;;;;0.50;0.40;;;;;;;4.20;76.60;91730.16;2050791;69;20229;-75
2023/11/06 02:52:04;;;;;;;2.38;0.50;;;;;;;4.21;76.11;91733.69;2051369;69;20483;-74
2023/11/06 02:54:31;;;;;;;0.80;0.30;;;;;;;4.15;77.04;91731.22;2051161;69;20138;-75
2023/11/06 02:56:56;;;;;;;1.02;0.47;;;;;;;4.16;76.70;91738.25;2051340;69;20148;-74
2023/11/06 02:59:22;;;;;;;4.10;1.00;;;;;;;4.08;77.30;91760.72;2050893;70;20147;-74
2023/11/06 03:01:50;;;;;;;1.35;0.88;;;;;;;4.18;76.43;91762.75;2050832;70;20147;-75
2023/11/06 03:04:15;;;;;;;2.70;1.27;;;;;;;3.88;78.25;91759.31;2051308;69;20149;-76
2023/11/06 03:06:41;;;;;;;5.28;1.30;;;;;;;4.03;77.02;91758.97;2050769;70;20150;-80
2023/11/06 03:09:12;;;;;;;2.05;1.13;;;;;;;4.14;76.31;91771.53;2051318;69;20193;-77
2023/11/06 03:11:38;;;;;;;5.28;1.20;;;;;;;3.76;76.39;91755.69;2050933;70;20150;-80
2023/11/06 03:14:05;;;;;;;3.65;1.10;;;;;;;3.68;77.56;91791.31;2051539;69;20212;-76
2023/11/06 03:16:36;;;;;;;5.53;0.95;;;;;;;3.89;77.67;91790.66;2051557;69;20237;-75
2023/11/06 03:19:05;;;;;;;2.92;1.00;;;;;;;4.01;77.37;91788.72;2051480;70;20158;-76
2023/11/06 03:21:34;;;;;;;2.75;1.00;;;;;;;4.05;77.06;91800.88;2051697;70;20146;-76
2023/11/06 03:24:00;;;;;;;3.08;1.10;;;;;;;3.86;76.85;91797.44;2050828;70;20312;-75
2023/11/06 03:26:25;;;;;;;3.53;1.10;;;;;;;3.97;77.30;91797.53;2048184;70;20240;-76
2023/11/06 03:28:51;;;;;;;7.30;1.20;;;;;;;4.08;77.17;91790.63;2051446;69;20285;-74
2023/11/06 03:31:16;;;;;;;4.22;0.90;;;;;;;4.06;77.39;91798.84;2051462;70;20150;-73
2023/11/06 03:33:42;;;;;;;0.85;0.60;;;;;;;3.95;76.95;91796.66;2051537;70;20637;-73
2023/11/06 03:36:08;;;;;;;2.58;0.90;;;;;;;4.04;77.11;91777.16;2051445;69;20146;-73
2023/11/06 03:38:34;;;;;;;4.57;0.57;;;;;;;4.03;75.84;91778.47;2051182;69;20629;-74
2023/11/06 03:41:00;;;;;;;1.23;0.55;;;;;;;4.14;74.71;91768.03;2050653;69;20139;-77
2023/11/06 03:43:25;;;;;;;1.13;0.52;;;;;;;4.30;73.91;91764.28;2047904;70;20146;-75
2023/11/06 03:45:51;;;;;;;0.52;0.40;;;;;;;4.41;73.42;91768.50;2051429;69;20197;-78
2023/11/06 03:48:16;;;;;;;0.50;0.40;;;;;;;4.40;73.82;91777.44;2050750;70;20150;-75
2023/11/06 03:50:47;;;;;;;1.27;0.60;;;;;;;4.31;74.85;91781.75;2051308;70;20245;-77
2023/11/06 03:53:13;;;;;;;0.95;0.65;;;;;;;4.03;75.96;91780.50;2051453;69;20146;-74
2023/11/06 03:55:39;;;;;;;1.08;0.50;;;;;;;3.98;75.55;91787.13;2051542;70;20173;-74
2023/11/06 03:58:05;;;;;;;2.20;0.70;;;;;;;3.91;76.35;91785.25;2051496;70;20618;-75
2023/11/06 04:00:32;;;;;;;2.70;0.60;;;;;;;4.02;75.51;91787.41;2051495;70;20158;-74
2023/11/06 04:02:59;;;;;;;2.88;0.57;;;;;;;4.15;75.30;91811.28;2051617;70;20237;-73
2023/11/06 04:05:25;;;;;;;1.55;0.60;;;;;;;4.18;74.91;91805.25;2051594;69;20221;-74
2023/11/06 04:07:51;;;;;;;2.10;0.50;;;;;;;4.21;74.68;91811.69;2051406;70;20595;-73
2023/11/06 04:10:16;;;;;;;1.25;0.60;;;;;;;4.18;74.75;91810.09;2051171;70;20230;-73
2023/11/06 04:12:42;;;;;;;0.85;0.50;;;;;;;4.10;74.79;91803.97;2051385;70;20201;-73
2023/11/06 04:15:09;;;;;;;0.60;0.50;;;;;;;4.27;74.37;91812.84;2051149;69;20169;-79
2023/11/06 04:17:35;;;;;;;1.67;0.50;;;;;;;4.16;74.45;91807.88;2051617;70;20652;-78
2023/11/06 04:20:00;;;;;;;0.65;0.50;;;;;;;4.16;74.18;91818.31;2051094;70;20146;-79
2023/11/06 04:22:26;;;;;;;0.70;0.40;;;;;;;4.05;74.54;91814.09;2051928;69;20157;-75
2023/11/06 04:24:52;;;;;;;4.95;4.30;;;;;;;3.58;76.83;91813.59;2051493;69;20273;-73
2023/11/06 04:27:17;;;;;;;6.22;3.45;;;;;;;3.82;76.39;91806.94;2051727;70;20161;-75
2023/11/06 04:29:43;;;;;;;5.22;3.20;;;;;;;3.97;75.30;91805.16;2051764;69;20166;-75
2023/11/06 04:32:09;;;;;;;7.30;2.30;;;;;;;3.94;75.05;91801.50;2051961;69;20590;-74
2023/11/06 04:34:34;;;;;;;1.00;0.90;;;;;;;3.93;75.08;91793.72;2051817;69;20146;-76
2023/11/06 04:37:00;;;;;;;6.63;3.28;;;;;;;3.85;75.68;91798.72;2051762;69;20213;-77
2023/11/06 04:39:26;;;;;;;2.50;1.70;;;;;;;3.89;75.36;91805.31;2051660;69;20188;-77
2023/11/06 04:41:51;;;;;;;2.33;1.10;;;;;;;3.86;75.59;91800.94;2051963;69;20487;-77
2023/11/06 04:44:18;;;;;;;1.67;1.30;;;;;;;3.97;75.07;91805.88;2051725;69;20138;-75
2023/11/06 04:46:44;;;;;;;2.45;1.10;;;;;;;4.07;74.71;91795.44;2051677;69;20157;-75
2023/11/06 04:49:11;;;;;;;3.67;1.60;;;;;;;3.81;75.33;91801.97;2051776;70;20158;-76
2023/11/06 04:51:36;;;;;;;2.00;1.40;;;;;;;3.69;75.80;91798.31;2048440;70;20158;-76
2023/11/06 04:54:02;;;;;;;2.70;1.40;;;;;;;3.74;75.15;91806.38;2051732;69;20155;-80
2023/11/06 04:56:30;;;;;;;2.53;1.40;;;;;;;3.82;75.03;91809.72;2051669;69;20166;-79
2023/11/06 04:58:56;;;;;;;2.38;1.30;;;;;;;3.87;75.03;91812.81;2051879;70;20526;-77
2023/11/06 05:01:22;;;;;;;2.10;1.25;;;;;;;3.85;74.87;91818.97;2051164;70;20170;-75
2023/11/06 05:03:47;;;;;;;7.07;3.20;;;;;;;3.86;74.84;91811.34;2051877;69;20158;-76
2023/11/06 05:06:13;;;;;;;6.85;3.63;;;;;;;3.78;74.66;91817.78;2051827;69;20143;-76
2023/11/06 05:08:39;;;;;;;4.70;2.50;;;;;;;3.68;74.77;91819.13;2051167;69;20605;-76
2023/11/06 05:11:05;;;;;;;5.28;2.58;;;;;;;3.58;74.86;91833.06;2051606;69;20150;-74
2023/11/06 05:13:32;;;;;;;11.55;5.63;;;;;;;3.68;75.09;91833.78;2051719;69;20270;-77
2023/11/06 05:15:57;;;;;;;7.05;4.28;;;;;;;3.73;75.01;91835.53;2051540;69;20150;-75
2023/11/06 05:18:23;;;;;;;4.65;2.42;;;;;;;3.76;74.86;91845.50;2051644;69;20217;-74
2023/11/06 05:20:49;;;;;;;2.53;1.35;;;;;;;3.69;75.08;91842.88;2051153;70;20637;-75
2023/11/06 05:23:14;;;;;;;11.32;5.30;;;;;;;3.12;77.08;91841.53;2051455;69;20599;-76
2023/11/06 05:25:40;;;;;;;15.70;7.38;;;;;;;3.37;76.79;91849.59;2051516;70;20692;-78
2023/11/06 05:28:06;;;;;;;9.68;7.00;;;;;;;3.37;77.02;91855.91;2050882;69;20162;-78
2023/11/06 05:30:31;;;;;;;10.25;6.53;;;;;;;3.34;76.21;91853.53;2051563;69;20244;-77
2023/11/06 05:32:57;;;;;;;8.25;4.90;;;;;;;3.46;76.25;91844.03;2051058;69;20135;-74
2023/11/06 05:35:26;;;;;;;7.13;4.88;;;;;;;3.52;75.86;91852.09;2051835;69;20133;-74
2023/11/06 05:37:52;;;;;;;8.50;5.00;;;;;;;3.43;76.07;91855.59;2051134;70;20189;-77
2023/11/06 05:40:18;;;;;;;6.55;4.30;;;;;;;3.45;75.85;91864.13;2051554;69;20156;-76
2023/11/06 05:42:43;;;;;;;6.10;3.72;;;;;;;3.41;75.36;91858.25;2051741;70;20154;-78
2023/11/06 05:45:10;;;;;;;3.35;2.22;;;;;;;3.42;75.73;91862.50;2050987;70;20150;-76
2023/11/06 05:47:37;;;;;;;9.07;3.78;;;;;;;3.07;77.45;91862.75;2051745;69;20145;-77
2023/11/06 05:50:04;;;;;;;7.95;3.90;;;;;;;3.30;76.69;91879.03;2051678;70;20213;-76
2023/11/06 05:52:29;;;;;;;7.60;4.68;;;;;;;3.21;76.32;91885.31;2051135;70;20127;-76
2023/11/06 05:54:55;;;;;;;9.48;4.30;;;;;;;3.30;75.94;91882.56;2051458;69;20185;-75
2023/11/06 05:57:21;;;;;;;8.50;4.22;;;;;;;3.28;76.04;91898.34;2051687;69;20154;-79
2023/11/06 05:59:46;;;;;;;7.78;3.83;;;;;;;3.30;75.70;91888.13;2051725;69;20248;-78
2023/11/06 06:02:12;;;;;;;6.32;4.05;;;;;;;3.21;76.15;91888.84;2051758;70;20220;-78
2023/11/06 06:04:41;;;;;;;10.07;4.65;;;;;;;3.22;75.92;91895.84;2051760;69;20278;-78
2023/11/06 06:07:07;;;;;;;9.82;6.07;;;;;;;2.49;78.10;91888.31;2051885;70;20142;-80
2023/11/06 06:09:33;;;;;;;6.03;3.80;;;;;;;2.72;78.75;91907.41;2051101;70;20261;-80
2023/11/06 06:12:00;;;;;;;10.15;4.20;;;;;;;2.96;77.52;91910.56;2051807;70;20245;-80
2023/11/06 06:14:25;;;;;;;9.23;4.32;;;;;;;3.02;77.07;91919.34;2051727;70;20197;-79
2023/11/06 06:16:51;;;;;;;6.90;4.50;;;;;;;2.73;77.52;91905.38;2051756;70;20237;-78
2023/11/06 06:19:18;;;;;;;43.22;22.98;;;;;;;2.74;78.33;91924.25;2051405;70;20162;-76
2023/11/06 06:21:46;;;;;;;11.15;6.55;;;;;;;2.93;77.66;91929.16;2051714;69;20218;-76
2023/11/06 06:24:12;;;;;;;8.57;5.47;;;;;;;2.95;77.63;91923.00;2051576;69;20658;-76
2023/11/06 06:26:37;;;;;;;11.50;5.85;;;;;;;3.00;77.33;91927.56;2051737;70;20228;-75
2023/11/06 06:29:04;;;;;;;8.77;4.35;;;;;;;3.16;76.92;91934.34;2051743;70;20560;-75
2023/11/06 06:31:30;;;;;;;7.45;3.92;;;;;;;3.13;76.91;91941.06;2051700;69;20535;-78
2023/11/06 06:33:56;;;;;;;7.15;3.60;;;;;;;2.89;77.28;91942.03;2051685;70;20146;-80
2023/11/06 06:36:23;;;;;;;8.77;3.80;;;;;;;3.01;77.08;91940.13;2051769;69;20237;-78
2023/11/06 06:38:50;;;;;;;10.55;6.65;;;;;;;2.73;78.14;91952.63;2051723;69;20166;-79
2023/11/06 06:41:16;;;;;;;17.70;10.15;;;;;;;2.71;78.10;91953.22;2051365;70;20153;-80
2023/11/06 06:43:41;;;;;;;13.57;8.32;;;;;;;2.94;77.56;91947.31;2051784;69;20575;-79
2023/11/06 06:46:07;;;;;;;15.27;8.73;;;;;;;2.98;77.17;91952.44;2051652;69;20146;-77
2023/11/06 06:48:33;;;;;;;17.60;9.00;;;;;;;3.00;77.03;91958.88;2051647;69;20538;-76
2023/11/06 06:50:58;;;;;;;12.85;8.48;;;;;;;3.02;76.89;91959.03;2051736;69;20150;-75
2023/11/06 06:53:24;;;;;;;14.55;8.73;;;;;;;2.51;77.70;91954.41;2048334;70;20567;-74
2023/11/06 06:55:50;;;;;;;10.65;6.55;;;;;;;2.71;78.92;91964.31;2051097;69;20143;-75
2023/11/06 06:58:17;;;;;;;10.60;6.75;;;;;;;2.89;78.10;91955.91;2051823;70;20217;-76
2023/11/06 07:00:44;;;;;;;12.20;6.90;;;;;;;3.05;77.83;91968.25;2051807;70;20625;-76
2023/11/06 07:03:10;;;;;;;13.13;7.25;;;;;;;3.03;77.48;91962.56;2051671;69;20182;-77
2023/11/06 07:05:37;;;;;;;11.65;5.85;;;;;;;3.15;77.41;91968.28;2051645;69;20152;-78
2023/11/06 07:08:04;;;;;;;8.77;5.18;;;;;;;3.14;76.76;91975.91;2051072;70;20145;-78
2023/11/06 07:10:30;;;;;;;6.45;3.90;;;;;;;3.21;76.72;91985.44;2051506;69;20139;-77
2023/11/06 07:12:57;;;;;;;10.50;6.50;;;;;;;2.71;77.52;91989.34;2051592;70;20591;-76
2023/11/06 07:15:28;;;;;;;12.82;7.10;;;;;;;3.05;77.65;91993.28;2051055;70;20193;-78
2023/11/06 07:17:56;;;;;;;13.32;7.50;;;;;;;3.10;77.12;91992.28;2051643;69;20146;-78
2023/11/06 07:20:22;;;;;;;14.45;9.85;;;;;;;2.83;77.35;91997.88;2051735;69;20155;-78
2023/11/06 07:22:49;;;;;;;13.43;9.00;;;;;;;3.02;77.65;92003.53;2051664;70;20613;-76
2023/11/06 07:25:16;;;;;;;14.40;8.05;;;;;;;3.11;77.31;92004.88;2051555;69;20149;-76
2023/11/06 07:27:43;;;;;;;13.25;9.38;;;;;;;3.17;77.38;92002.56;2051670;69;20233;-76
2023/11/06 07:30:10;;;;;;;15.45;8.90;;;;;;;3.20;76.97;92006.22;2048447;70;20608;-75
2023/11/06 07:32:36;;;;;;;12.90;7.57;;;;;;;3.19;76.94;91999.19;2051683;69;20147;-78
2023/11/06 07:35:03;;;;;;;11.23;6.97;;;;;;;3.24;76.76;92001.69;2051219;70;20166;-75
2023/11/06 07:37:30;;;;;;;12.05;5.38;;;;;;;3.29;76.91;92009.03;2051668;70;20181;-75
2023/11/06 07:39:56;;;;;;;9.13;5.03;;;;;;;3.30;76.71;92013.31;2050879;70;20145;-75
2023/11/06 07:42:22;;;;;;;8.27;4.20;;;;;;;3.26;76.65;92007.44;2051574;70;20178;-77
2023/11/06 07:44:48;;;;;;;4.88;3.20;;;;;;;3.37;77.03;92008.91;2051679;70;20315;-75
2023/11/06 07:47:14;;;;;;;3.58;1.90;;;;;;;3.34;77.04;92014.91;2053883;69;20146;-77
2023/11/06 07:49:39;;;;;;;4.25;2.40;;;;;;;3.18;77.66;92026.28;2051047;70;20142;-78
2023/11/06 07:52:10;;;;;;;12.30;5.68;;;;;;;3.19;77.74;92024.97;2051607;70;20153;-77
2023/11/06 07:54:43;;;;;;;9.82;4.93;;;;;;;3.38;76.75;92029.84;2051508;70;20150;-78
2023/11/06 07:57:10;;;;;;;13.02;5.97;;;;;;;3.34;76.72;92017.69;2051602;70;20145;-79
2023/11/06 07:59:42;;;;;;;9.63;6.38;;;;;;;3.38;76.80;92015.22;2051706;70;20149;-77
2023/11/06 08:02:10;;;;;;;8.98;5.57;;;;;;;3.42;76.45;92012.75;2051539;69;20150;-77
2023/11/06 08:04:38;;;;;;;11.73;5.70;;;;;;;3.29;76.59;92016.66;2051683;70;20146;-77
2023/11/06 08:07:04;;;;;;;11.15;5.90;;;;;;;3.43;76.36;92023.28;2051633;70;20184;-77
2023/11/06 08:09:30;;;;;;;12.05;6.25;;;;;;;3.89;77.67;92027.34;2050968;70;20146;-76
2023/11/06 08:11:56;;;;;;;9.52;6.22;;;;;;;4.38;79.02;92039.25;2053979;69;20161;-76
2023/11/06 08:14:21;;;;;;;10.13;6.80;;;;;;;4.71;78.96;92040.25;2051576;69;20591;-76
2023/11/06 08:16:47;;;;;;;17.15;7.90;;;;;;;5.01;77.04;92044.47;2051696;70;20495;-75
2023/11/06 08:19:12;;;;;;;12.45;7.18;;;;;;;5.45;76.69;92046.09;2051574;70;20170;-79
2023/11/06 08:21:41;;;;;;;13.13;7.03;;;;;;;5.59;73.78;92043.56;2051537;70;20145;-78
2023/11/06 08:24:07;;;;;;;10.13;6.45;;;;;;;5.53;72.57;92015.19;2051413;70;20173;-76
2023/11/06 08:26:32;;;;;;;13.55;8.00;;;;;;;5.41;72.32;92045.81;2053713;69;20545;-77
2023/11/06 08:28:58;;;;;;;16.48;7.78;;;;;;;6.11;73.86;92051.22;2051631;69;20146;-75
2023/11/06 08:31:24;;;;;;;13.32;7.20;;;;;;;6.59;73.15;92042.47;2051457;70;20154;-76
2023/11/06 08:33:50;;;;;;;11.43;6.35;;;;;;;6.98;72.56;92055.41;2051481;70;20146;-75
2023/11/06 08:36:16;;;;;;;12.85;7.35;;;;;;;7.12;68.63;92045.13;2051602;70;20591;-76
2023/11/06 08:38:44;;;;;;;15.70;7.15;;;;;;;7.55;68.96;92028.13;2051549;70;20205;-78
2023/11/06 08:41:09;;;;;;;16.52;6.35;;;;;;;7.77;67.99;92046.28;2051310;70;20237;-76
2023/11/06 08:43:35;;;;;;;18.60;6.82;;;;;;;8.12;66.53;92034.34;2051674;70;20143;-76
2023/11/06 08:46:02;;;;;;;12.80;5.90;;;;;;;8.38;65.46;92044.31;2051481;69;20221;-77
2023/11/06 08:48:29;;;;;;;11.70;6.57;;;;;;;7.76;65.13;92046.91;2051590;70;20629;-77
2023/11/06 08:50:55;;;;;;;13.80;7.60;;;;;;;8.67;65.87;92045.22;2051412;70;20138;-77
2023/11/06 08:53:23;;;;;;;11.98;7.47;;;;;;;9.35;64.99;92044.81;2051486;70;20149;-79
2023/11/06 08:55:50;;;;;;;12.05;6.97;;;;;;;8.63;61.52;92049.25;2051356;70;20310;-80
2023/11/06 08:58:16;;;;;;;9.73;4.95;;;;;;;8.72;63.17;92042.03;2051025;70;20130;-79
2023/11/06 09:00:43;;;;;;;7.80;4.80;;;;;;;8.94;62.13;92050.25;2050814;70;20130;-78
2023/11/06 09:03:09;;;;;;;8.50;4.30;;;;;;;9.01;60.27;92047.16;2051545;70;20149;-78
2023/11/06 09:05:36;;;;;;;7.32;3.70;;;;;;;9.66;61.94;92047.16;2051418;70;20177;-77
2023/11/06 09:08:07;;;;;;;7.28;3.95;;;;;;;9.56;58.73;92044.53;2051797;69;20537;-78
2023/11/06 09:10:33;;;;;;;6.28;4.00;;;;;;;10.42;58.26;92046.94;2051817;69;20162;-79
2023/11/06 09:13:00;;;;;;;5.53;3.50;;;;;;;10.30;57.92;92048.41;2051959;69;20149;-77
2023/11/06 09:15:25;;;;;;;4.20;2.40;;;;;;;10.10;56.03;92050.88;2051971;69;20134;-76
2023/11/06 09:17:51;;;;;;;3.97;1.90;;;;;;;10.25;54.27;92055.91;2054123;70;20534;-76
2023/11/06 09:20:16;;;;;;;3.38;1.30;;;;;;;11.55;53.74;92063.66;2054113;69;20225;-76
2023/11/06 09:22:44;;;;;;;2.10;1.10;;;;;;;11.82;51.97;92054.31;2052018;69;20220;-77
2023/11/06 09:25:09;;;;;;;2.13;1.63;;;;;;;12.43;53.63;92057.78;2051615;70;20160;-76
2023/11/06 09:27:35;;;;;;;19.80;11.30;;;;;;;12.02;53.93;92054.53;2051943;70;20143;-77
2023/11/06 09:30:02;;;;;;;16.05;9.15;;;;;;;12.26;53.60;92052.06;2051903;69;20244;-81
2023/11/06 09:32:28;;;;;;;4.97;3.05;;;;;;;12.92;52.67;92056.31;2051819;69;20140;-80
2023/11/06 09:34:55;;;;;;;3.08;1.80;;;;;;;12.79;50.66;92060.00;2051767;69;20513;-79
2023/11/06 09:37:21;;;;;;;6.22;1.50;;;;;;;12.35;51.97;92059.53;2051793;70;20658;-77
2023/11/06 09:39:47;;;;;;;3.30;2.30;;;;;;;12.78;50.38;92064.19;2051715;69;20138;-79
2023/11/06 09:42:13;;;;;;;5.40;1.77;;;;;;;13.49;49.80;92041.69;2051813;69;20320;-77
2023/11/06 09:44:39;;;;;;;21.45;7.85;;;;;;;13.61;46.61;92066.91;2051750;69;20200;-78
2023/11/06 09:47:09;;;;;;;4.68;1.92;;;;;;;14.07;47.32;92064.44;2051741;69;20158;-77
2023/11/06 09:49:42;;;;;;;2.45;1.50;;;;;;;14.87;46.86;92070.88;2051841;69;20245;-78
2023/11/06 09:52:09;;;;;;;2.40;1.63;;;;;;;15.34;44.70;92073.19;2051714;69;20138;-78
2023/11/06 09:54:41;;;;;;;1.80;1.17;;;;;;;14.96;43.64;92067.66;2051668;70;20151;-78
2023/11/06 09:57:11;;;;;;;1.80;1.13;;;;;;;14.51;45.15;92070.28;2051734;70;20147;-78
2023/11/06 09:59:37;;;;;;;2.30;1.13;;;;;;;15.84;44.32;92064.88;2051713;69;20241;-78
2023/11/06 10:02:04;;;;;;;2.20;1.40;;;;;;;16.39;44.14;92066.53;2051735;69;20164;-79
2023/11/06 10:04:32;;;;;;;1.52;1.10;;;;;;;16.59;43.78;92062.84;2051784;69;20591;-79
2023/11/06 10:06:59;;;;;;;2.45;1.70;;;;;;;17.19;41.86;92065.94;2053951;69;20122;-77
2023/11/06 10:09:25;;;;;;;4.45;1.60;;;;;;;15.84;43.19;92064.16;2051674;69;20202;-78
2023/11/06 10:11:52;;;;;;;1.88;1.35;;;;;;;15.72;42.17;92065.22;2048572;70;20542;-79
2023/11/06 10:14:18;;;;;;;1.90;1.27;;;;;;;16.65;41.46;92065.84;2051791;70;20771;-77
2023/11/06 10:16:44;;;;;;;2.63;1.30;;;;;;;18.17;39.10;92063.34;2051766;69;20145;-77
2023/11/06 10:19:14;;;;;;;2.50;1.48;;;;;;;19.16;40.50;92063.28;2051862;70;20154;-77
2023/11/06 10:21:40;;;;;;;7.63;1.45;;;;;;;19.87;39.49;92058.81;2051661;69;20142;-77
2023/11/06 10:24:11;;;;;;;3.85;1.20;;;;;;;20.33;38.36;92058.09;2051588;70;20165;-78
2023/11/06 10:26:38;;;;;;;2.33;1.10;;;;;;;20.86;38.11;92061.69;2051723;69;20615;-77
2023/11/06 10:29:14;;;;;;;1.55;1.17;;;;;;;21.10;36.07;92054.84;2051845;69;20169;-77
2023/11/06 10:31:44;;;;;;;1.75;1.10;;;;;;;21.38;37.04;92048.72;2051776;70;20170;-77
2023/11/06 10:34:27;;;;;;;2.78;1.00;;;;;;;22.29;35.90;92063.16;2051661;70;20236;-77
2023/11/06 10:37:14;;;;;;;2.28;1.20;;;;;;;22.84;33.98;92055.59;2051715;70;20670;-77
2023/11/06 10:39:41;;;;;;;2.78;1.30;;;;;;;22.82;33.21;92049.16;2051684;69;20142;-78
2023/11/06 10:42:11;;;;;;;2.20;1.40;;;;;;;24.32;32.72;92048.78;2051648;69;20148;-80
2023/11/06 10:44:37;;;;;;;3.08;2.05;;;;;;;24.10;32.59;92051.69;2051886;69;20603;-78
2023/11/06 10:47:08;;;;;;;7.25;2.97;;;;;;;23.56;32.90;92042.25;2051725;69;20168;-78
2023/11/06 10:49:46;;;;;;;3.00;1.42;;;;;;;24.39;33.28;92038.03;2051708;69;20170;-78
2023/11/06 10:52:12;;;;;;;4.10;1.33;;;;;;;24.24;30.80;92036.59;2051654;69;20155;-78
2023/11/06 10:54:40;;;;;;;1.52;1.20;;;;;;;25.73;29.41;92042.59;2051663;69;20151;-78
2023/11/06 10:57:07;;;;;;;3.45;0.90;;;;;;;26.24;28.77;92050.22;2051805;69;20180;-78
2023/11/06 10:59:34;;;;;;;1.30;1.15;;;;;;;27.70;27.71;92042.19;2051844;69;20530;-78
2023/11/06 11:02:04;;;;;;;1.70;1.15;;;;;;;27.67;25.83;92040.78;2051728;69;20146;-81
2023/11/06 11:04:36;;;;;;;4.13;1.20;;;;;;;27.77;26.52;92040.69;2051204;70;20153;-78
2023/11/06 11:07:05;;;;;;;3.15;1.25;;;;;;;26.69;27.15;92050.56;2051709;69;20134;-79
2023/11/06 11:09:31;;;;;;;1.55;0.90;;;;;;;26.12;28.35;92036.59;2051278;70;20142;-79
2023/11/06 11:12:01;;;;;;;1.48;0.80;;;;;;;28.93;26.31;92041.00;2051790;69;20126;-78
2023/11/06 11:14:27;;;;;;;9.07;1.17;;;;;;;29.10;25.13;92044.34;2053878;69;20693;-82
2023/11/06 11:16:56;;;;;;;1.55;0.90;;;;;;;29.61;24.59;92041.19;2051660;69;20170;-81
2023/11/06 11:19:31;;;;;;;0.90;0.70;;;;;;;31.33;21.07;92037.81;2051485;70;20237;-79
2023/11/06 11:22:08;;;;;;;2.78;0.63;;;;;;;32.85;22.43;92048.56;2054009;69;20133;-81
2023/11/06 11:24:52;;;;;;;2.75;1.85;;;;;;;30.11;22.12;92049.53;2051620;69;20161;-81
2023/11/06 11:27:25;;;;;;;2.25;1.10;;;;;;;27.92;24.43;92052.75;2051628;69;20130;-80
2023/11/06 11:29:58;;;;;;;2.10;1.10;;;;;;;30.91;24.81;92050.56;2053796;69;20150;-79
2023/11/06 11:32:30;;;;;;;1.10;0.77;;;;;;;33.01;25.06;92056.09;2051675;70;20616;-79
2023/11/06 11:35:19;;;;;;;1.13;0.88;;;;;;;33.69;21.22;92048.63;2051669;69;20157;-79
2023/11/06 11:37:59;;;;;;;5.07;1.20;;;;;;;31.39;22.51;92048.59;2047902;70;20170;-80